createdAt,value
2023-02-04T00:00:21.024Z,2.61
2023-02-04T00:05:18.530Z,2.66
2023-02-04T00:10:15.139Z,2.70
2023-02-04T00:15:11.722Z,2.76
2023-02-04T00:20:08.541Z,2.56
2023-02-04T00:25:05.311Z,2.38
2023-02-04T00:30:01.736Z,2.25
2023-02-04T00:34:58.110Z,2.14
2023-02-04T00:39:54.493Z,2.08
2023-02-04T00:44:50.867Z,2.02
2023-02-04T00:49:47.306Z,1.91
2023-02-04T00:54:43.711Z,1.93
2023-02-04T00:59:40.141Z,1.93
2023-02-04T01:04:36.563Z,2.03
2023-02-04T01:09:33.851Z,2.24
2023-02-04T01:14:30.264Z,2.29
2023-02-04T01:19:26.729Z,2.33
2023-02-04T01:24:23.148Z,2.24
2023-02-04T01:29:19.522Z,2.22
2023-02-04T01:34:15.910Z,2.19
2023-02-04T01:39:12.309Z,2.30
2023-02-04T01:44:08.693Z,2.39
2023-02-04T01:49:06.756Z,2.55
2023-02-04T01:54:03.915Z,2.53
2023-02-04T01:59:00.427Z,2.56
2023-02-04T02:03:56.866Z,2.41
2023-02-04T02:08:53.369Z,2.54
2023-02-04T02:13:49.841Z,2.49
2023-02-04T02:18:46.342Z,2.40
2023-02-04T02:23:53.656Z,2.33
2023-02-04T02:28:50.941Z,2.08
2023-02-04T02:33:48.178Z,2.03
2023-02-04T02:38:44.619Z,1.87
2023-02-04T02:43:41.046Z,1.72
2023-02-04T02:48:37.494Z,1.67
2023-02-04T02:53:34.168Z,1.55
2023-02-04T02:58:33.099Z,1.38
2023-02-04T03:03:47.601Z,1.21
2023-02-04T03:08:44.692Z,1.09
2023-02-04T03:13:41.845Z,1.03
2023-02-04T03:18:39.116Z,0.98
2023-02-04T03:23:36.890Z,0.89
2023-02-04T03:28:34.372Z,0.79
2023-02-04T03:33:31.501Z,0.81
2023-02-04T03:38:28.055Z,0.77
2023-02-04T03:43:24.436Z,0.71
2023-02-04T03:48:20.858Z,0.76
2023-02-04T03:53:17.239Z,0.89
2023-02-04T03:58:13.621Z,1.14
2023-02-04T04:03:10.096Z,1.41
2023-02-04T04:08:06.585Z,1.58
2023-02-04T04:13:03.055Z,1.65
2023-02-04T04:17:59.450Z,1.79
2023-02-04T04:22:56.083Z,1.83
2023-02-04T04:27:52.530Z,1.89
2023-02-04T04:32:48.909Z,1.94
2023-02-04T04:37:45.369Z,1.88
2023-02-04T04:42:41.853Z,1.88
2023-02-04T04:47:38.493Z,1.83
2023-02-04T04:52:34.875Z,1.75
2023-02-04T04:57:31.590Z,1.66
2023-02-04T05:02:28.007Z,1.49
2023-02-04T05:07:24.545Z,1.30
2023-02-04T05:12:20.958Z,1.09
2023-02-04T05:17:17.535Z,0.88
2023-02-04T05:22:13.983Z,0.80
2023-02-04T05:27:10.376Z,0.69
2023-02-04T05:32:06.856Z,0.59
2023-02-04T05:37:03.430Z,0.50
2023-02-04T05:41:59.855Z,0.48
2023-02-04T05:46:56.264Z,0.36
2023-02-04T05:51:52.629Z,0.27
2023-02-04T05:56:49.405Z,0.15
2023-02-04T06:01:45.779Z,0.06
2023-02-04T06:06:43.031Z,0.04
2023-02-04T06:11:39.696Z,-0.01
2023-02-04T06:16:36.487Z,-0.09
2023-02-04T06:21:32.885Z,-0.19
2023-02-04T06:26:29.486Z,-0.25
2023-02-04T06:31:26.025Z,-0.29
2023-02-04T06:36:22.458Z,-0.25
2023-02-04T06:41:18.919Z,-0.29
2023-02-04T06:46:16.018Z,-0.29
2023-02-04T06:51:12.564Z,-0.25
2023-02-04T06:56:08.980Z,-0.20
2023-02-04T07:01:06.235Z,-0.17
2023-02-04T07:06:02.678Z,-0.12
2023-02-04T07:10:59.166Z,-0.07
2023-02-04T07:15:55.687Z,-0.03
2023-02-04T07:20:52.403Z,-0.06
2023-02-04T07:25:49.045Z,-0.10
2023-02-04T07:30:45.958Z,-0.03
2023-02-04T07:35:42.446Z,0.06
2023-02-04T07:40:39.173Z,0.24
2023-02-04T07:45:35.636Z,0.35
2023-02-04T07:50:32.428Z,0.45
2023-02-04T07:55:29.065Z,0.56
2023-02-04T08:00:25.514Z,0.56
2023-02-04T08:05:21.968Z,0.67
2023-02-04T08:10:18.482Z,0.75
2023-02-04T08:15:16.006Z,0.71
2023-02-04T08:20:12.773Z,0.75
2023-02-04T08:25:11.315Z,0.88
2023-02-04T08:30:08.753Z,1.00
2023-02-04T08:35:06.627Z,1.13
2023-02-04T08:40:03.236Z,1.21
2023-02-04T08:44:59.681Z,1.22
2023-02-04T08:49:56.129Z,1.34
2023-02-04T08:54:52.565Z,1.50
2023-02-04T08:59:48.995Z,1.71
2023-02-04T09:04:45.391Z,1.92
2023-02-04T09:09:41.767Z,2.04
2023-02-04T09:14:38.207Z,2.08
2023-02-04T09:19:34.638Z,2.20
2023-02-04T09:24:31.021Z,2.20
2023-02-04T09:29:27.398Z,2.35
2023-02-04T09:34:23.996Z,2.47
2023-02-04T09:39:20.376Z,2.67
2023-02-04T09:44:19.887Z,2.69
2023-02-04T09:49:16.666Z,2.84
2023-02-04T09:54:15.718Z,3.17
2023-02-04T09:59:14.648Z,3.31
2023-02-04T10:04:14.915Z,3.57
2023-02-04T10:09:13.538Z,3.74
2023-02-04T10:14:16.584Z,4.05
2023-02-04T10:19:15.539Z,4.72
2023-02-04T10:24:17.617Z,4.89
2023-02-04T10:29:23.802Z,5.57
2023-02-04T10:34:23.395Z,5.81
2023-02-04T10:39:22.742Z,6.07
2023-02-04T10:44:25.423Z,6.08
2023-02-04T10:49:24.289Z,5.89
2023-02-04T10:54:30.315Z,6.00
2023-02-04T10:59:28.939Z,5.50
2023-02-04T11:04:27.008Z,5.40
2023-02-04T11:09:23.447Z,5.06
2023-02-04T11:14:26.701Z,5.25
2023-02-04T11:19:35.709Z,5.59
2023-02-04T11:24:34.201Z,5.34
2023-02-04T11:29:38.083Z,5.43
2023-02-04T11:34:50.949Z,5.46
2023-02-04T11:39:49.281Z,5.38
2023-02-04T11:44:55.416Z,5.43
2023-02-04T11:49:58.734Z,5.40
2023-02-04T11:54:59.719Z,6.48
2023-02-04T11:59:56.270Z,6.55
2023-02-04T12:05:08.317Z,7.07
2023-02-04T12:10:16.609Z,6.63
2023-02-04T12:15:21.463Z,6.26
2023-02-04T12:20:18.034Z,6.14
2023-02-04T12:25:17.033Z,6.01
2023-02-04T12:30:13.669Z,6.16
2023-02-04T12:35:10.101Z,6.67
2023-02-04T12:40:07.461Z,6.64
2023-02-04T12:45:03.993Z,7.84
2023-02-04T12:50:00.756Z,8.77
2023-02-04T12:54:57.142Z,9.11
2023-02-04T12:59:55.484Z,8.90
2023-02-04T13:04:52.643Z,9.44
2023-02-04T13:09:49.245Z,9.31
2023-02-04T13:14:45.673Z,9.16
2023-02-04T13:19:42.108Z,9.40
2023-02-04T13:24:38.709Z,8.98
2023-02-04T13:29:35.114Z,9.16
2023-02-04T13:34:31.529Z,8.18
2023-02-04T13:39:27.952Z,7.91
2023-02-04T13:44:24.532Z,7.72
2023-02-04T13:49:21.633Z,7.53
2023-02-04T13:54:18.014Z,7.97
2023-02-04T13:59:14.499Z,7.85
2023-02-04T14:04:10.886Z,7.55
2023-02-04T14:09:07.306Z,7.13
2023-02-04T14:14:03.787Z,6.95
2023-02-04T14:19:00.484Z,6.39
2023-02-04T14:23:56.939Z,6.55
2023-02-04T14:28:53.458Z,6.32
2023-02-04T14:33:50.460Z,5.98
2023-02-04T14:38:46.889Z,5.95
2023-02-04T14:43:43.284Z,5.75
2023-02-04T14:48:39.880Z,5.59
2023-02-04T14:53:36.266Z,5.16
2023-02-04T14:58:32.660Z,4.98
2023-02-04T15:03:29.212Z,5.09
2023-02-04T15:08:25.709Z,5.01
2023-02-04T15:13:22.194Z,4.99
2023-02-04T15:18:18.654Z,4.97
2023-02-04T15:23:15.087Z,4.87
2023-02-04T15:28:12.281Z,4.55
2023-02-04T15:33:08.814Z,4.32
2023-02-04T15:38:05.429Z,4.27
2023-02-04T15:43:01.900Z,4.28
2023-02-04T15:47:58.327Z,4.17
2023-02-04T15:52:54.895Z,3.98
2023-02-04T15:57:51.339Z,3.94
2023-02-04T16:02:47.776Z,3.81
2023-02-04T16:07:44.187Z,3.80
2023-02-04T16:12:40.614Z,3.75
2023-02-04T16:17:37.024Z,3.71
2023-02-04T16:22:33.610Z,3.58
2023-02-04T16:27:31.720Z,3.63
2023-02-04T16:32:28.939Z,3.54
2023-02-04T16:37:25.401Z,3.40
2023-02-04T16:42:21.906Z,3.42
2023-02-04T16:47:18.356Z,3.35
2023-02-04T16:52:14.763Z,3.33
2023-02-04T16:57:12.153Z,3.27
2023-02-04T17:02:09.960Z,3.09
2023-02-04T17:07:06.461Z,3.05
2023-02-04T17:12:03.097Z,3.05
2023-02-04T17:16:59.523Z,3.03
2023-02-04T17:21:55.941Z,2.94
2023-02-04T17:26:52.393Z,2.84
2023-02-04T17:31:48.926Z,2.72
2023-02-04T17:36:45.424Z,2.63
2023-02-04T17:41:41.793Z,2.50
2023-02-04T17:46:38.240Z,2.47
2023-02-04T17:51:35.199Z,2.40
2023-02-04T17:56:31.751Z,2.30
2023-02-04T18:01:28.506Z,2.19
2023-02-04T18:06:28.793Z,1.99
2023-02-04T18:11:27.991Z,1.82
2023-02-04T18:16:28.518Z,1.88
2023-02-04T18:21:27.769Z,1.96
2023-02-04T18:26:25.710Z,2.05
2023-02-04T18:31:35.054Z,2.09
2023-02-04T18:36:33.191Z,2.12
2023-02-04T18:41:33.683Z,2.03
2023-02-04T18:46:35.537Z,2.00
2023-02-04T18:51:35.015Z,2.04
2023-02-04T18:56:36.617Z,2.16
2023-02-04T19:01:38.799Z,2.12
2023-02-04T19:06:40.439Z,2.08
2023-02-04T19:11:40.634Z,2.16
2023-02-04T19:16:37.121Z,2.10
2023-02-04T19:21:34.494Z,2.13
2023-02-04T19:26:42.341Z,2.08
2023-02-04T19:31:41.444Z,2.07
2023-02-04T19:36:38.439Z,1.94
2023-02-04T19:41:44.246Z,1.68
2023-02-04T19:46:44.149Z,1.57
2023-02-04T19:51:40.814Z,1.40
2023-02-04T19:56:40.094Z,1.28
2023-02-04T20:01:36.866Z,1.29
2023-02-04T20:06:36.361Z,0.93
2023-02-04T20:11:36.197Z,0.83
2023-02-04T20:17:00.583Z,0.86
2023-02-04T20:22:19.988Z,0.70
2023-02-04T20:27:21.378Z,0.56
2023-02-04T20:32:26.119Z,0.54
2023-02-04T20:37:26.913Z,0.45
2023-02-04T20:42:34.301Z,0.34
2023-02-04T20:47:34.823Z,0.29
2023-02-04T20:53:08.219Z,0.15
2023-02-04T20:58:27.222Z,0.12
2023-02-04T21:03:36.877Z,0.01
2023-02-04T21:08:43.866Z,-0.08
2023-02-04T21:13:41.058Z,-0.18
2023-02-04T21:18:37.796Z,-0.04
2023-02-04T21:23:36.091Z,-0.06
2023-02-04T21:28:34.027Z,-0.30
2023-02-04T21:33:30.997Z,-0.15
2023-02-04T21:38:28.332Z,-0.12
2023-02-04T21:43:24.942Z,-0.18
2023-02-04T21:48:21.970Z,-0.16
2023-02-04T21:53:18.350Z,-0.34
2023-02-04T21:58:15.253Z,-0.40
2023-02-04T22:03:15.995Z,-0.53
2023-02-04T22:08:12.950Z,-0.52
2023-02-04T22:13:10.597Z,-0.64
2023-02-04T22:18:07.232Z,-0.70
2023-02-04T22:23:03.844Z,-0.82
2023-02-04T22:28:00.560Z,-0.71
2023-02-04T22:33:00.605Z,-0.73
2023-02-04T22:37:59.972Z,-0.74
2023-02-04T22:42:57.535Z,-0.75
2023-02-04T22:47:53.928Z,-0.81
2023-02-04T22:52:50.589Z,-0.75
2023-02-04T22:57:47.143Z,-0.78
2023-02-04T23:02:43.628Z,-0.85
2023-02-04T23:07:40.123Z,-0.93
2023-02-04T23:12:36.507Z,-0.96
2023-02-04T23:17:32.927Z,-1.06
2023-02-04T23:22:29.297Z,-1.02
2023-02-04T23:27:25.834Z,-1.06
2023-02-04T23:32:23.359Z,-1.12
2023-02-04T23:37:19.742Z,-1.14
2023-02-04T23:42:16.149Z,-1.20
2023-02-04T23:47:12.554Z,-1.26
2023-02-04T23:52:08.994Z,-1.29
2023-02-04T23:57:05.745Z,-1.32
